Time;durP1;ratioP1;P1;durP2;ratioP2;P2;SDS_P1;SDS_P2;PMS_P1;PMS_P2;Temp;Humidity;BMP_temperature;BMP_pressure;BME280_temperature;BME280_humidity;BME280_pressure;Samples;Min_cycle;Max_cycle;Signal;HPM_P1;HPM_P2
2022/02/17 00:00:29;;;;;;;0.30;0.30;;;7.90;99.90;;;;;;5034824;28;20055;-82
2022/02/17 00:02:55;;;;;;;0.30;0.30;;;7.90;99.90;;;;;;5035047;28;20029;-82
2022/02/17 00:05:23;;;;;;;0.32;0.32;;;7.90;99.90;;;;;;5052903;28;20100;-82
2022/02/17 00:07:50;;;;;;;0.73;0.50;;;7.90;99.90;;;;;;5052893;28;20033;-81
2022/02/17 00:10:16;;;;;;;0.50;0.45;;;7.90;99.90;;;;;;5052754;28;20029;-83
2022/02/17 00:12:43;;;;;;;2.08;0.38;;;7.90;99.90;;;;;;5037071;28;20025;-82
2022/02/17 00:15:09;;;;;;;0.25;0.25;;;7.90;99.90;;;;;;5038930;28;20021;-83
2022/02/17 00:17:35;;;;;;;0.35;0.32;;;7.90;99.90;;;;;;5038879;28;20167;-83
2022/02/17 00:20:01;;;;;;;0.45;0.30;;;7.90;99.90;;;;;;5038858;28;20107;-83
2022/02/17 00:22:27;;;;;;;0.50;0.40;;;7.90;99.90;;;;;;5056656;28;20021;-82
2022/02/17 00:24:53;;;;;;;1.13;0.28;;;7.90;99.90;;;;;;5038717;28;20388;-82
2022/02/17 00:27:19;;;;;;;0.30;0.20;;;7.90;99.90;;;;;;5038743;28;20017;-83
2022/02/17 00:29:44;;;;;;;0.43;0.20;;;7.90;99.90;;;;;;5038737;28;20021;-82
2022/02/17 00:32:11;;;;;;;0.15;0.15;;;7.90;99.90;;;;;;5038468;28;20021;-82
2022/02/17 00:34:36;;;;;;;0.70;0.50;;;7.90;99.90;;;;;;5056743;28;20495;-82
2022/02/17 00:37:03;;;;;;;0.30;0.30;;;7.90;99.90;;;;;;5038545;28;20018;-83
2022/02/17 00:39:30;;;;;;;0.55;0.20;;;7.90;99.90;;;;;;5038533;28;20033;-82
2022/02/17 00:41:56;;;;;;;2.17;0.40;;;7.90;99.90;;;;;;5038492;28;20051;-83
2022/02/17 00:44:22;;;;;;;0.30;0.28;;;7.90;99.90;;;;;;5038458;28;20108;-81
2022/02/17 00:46:48;;;;;;;0.38;0.30;;;7.90;99.90;;;;;;5038399;28;20056;-85
2022/02/17 00:49:14;;;;;;;0.28;0.28;;;7.90;99.90;;;;;;5038364;28;20033;-82
2022/02/17 00:51:40;;;;;;;0.20;0.20;;;7.90;99.90;;;;;;5038476;28;20495;-82
2022/02/17 00:54:05;;;;;;;0.20;0.20;;;7.90;99.90;;;;;;5056068;28;20095;-82
2022/02/17 00:56:31;;;;;;;0.88;0.38;;;7.90;99.90;;;;;;5056048;28;20424;-83
2022/02/17 00:58:57;;;;;;;0.30;0.30;;;7.90;99.90;;;;;;5056003;28;20021;-83
2022/02/17 01:01:23;;;;;;;0.20;0.20;;;7.90;99.90;;;;;;5037918;28;20053;-82
2022/02/17 01:03:49;;;;;;;0.20;0.20;;;8.00;99.90;;;;;;5037963;28;20116;-82
2022/02/17 01:06:14;;;;;;;0.30;0.30;;;7.90;99.90;;;;;;5037998;28;20060;-82
2022/02/17 01:08:40;;;;;;;0.30;0.28;;;8.00;99.90;;;;;;5037873;28;20032;-81
2022/02/17 01:11:06;;;;;;;0.20;0.20;;;7.90;99.90;;;;;;5037868;28;20035;-82
2022/02/17 01:13:31;;;;;;;0.13;0.13;;;7.90;99.90;;;;;;5037954;28;20025;-83
2022/02/17 01:15:57;;;;;;;0.13;0.13;;;7.90;99.90;;;;;;5055728;28;20024;-83
2022/02/17 01:18:23;;;;;;;0.20;0.20;;;7.90;99.90;;;;;;5037825;28;20021;-82
2022/02/17 01:20:50;;;;;;;0.20;0.20;;;8.00;99.90;;;;;;5055937;28;20104;-83
2022/02/17 01:23:16;;;;;;;0.20;0.20;;;8.00;99.90;;;;;;5037244;28;20387;-85
2022/02/17 01:25:42;;;;;;;0.40;0.20;;;8.00;99.90;;;;;;5037829;28;20488;-85
2022/02/17 01:28:08;;;;;;;0.10;0.10;;;8.00;99.90;;;;;;5037650;28;20052;-84
2022/02/17 01:30:34;;;;;;;0.20;0.20;;;8.00;99.90;;;;;;5037417;28;20078;-83
2022/02/17 01:33:00;;;;;;;0.17;0.17;;;8.00;99.90;;;;;;5038109;28;20028;-83
2022/02/17 01:35:26;;;;;;;0.10;0.10;;;8.00;99.90;;;;;;5037527;28;20067;-83
2022/02/17 01:37:52;;;;;;;0.10;0.10;;;8.00;99.90;;;;;;5037502;28;20048;-83
2022/02/17 01:40:18;;;;;;;0.55;0.30;;;8.00;99.90;;;;;;5055251;28;20031;-83
2022/02/17 01:42:44;;;;;;;0.73;0.28;;;8.00;99.90;;;;;;5037327;28;20035;-82
2022/02/17 01:45:11;;;;;;;0.20;0.20;;;8.00;99.90;;;;;;5037249;28;20025;-83
2022/02/17 01:47:37;;;;;;;0.20;0.20;;;8.00;99.90;;;;;;5037274;28;20125;-82
2022/02/17 01:50:04;;;;;;;0.10;0.10;;;8.00;99.90;;;;;;5037387;28;20068;-83
2022/02/17 01:52:30;;;;;;;0.28;0.20;;;8.00;99.90;;;;;;5054930;28;20388;-83
2022/02/17 01:54:57;;;;;;;0.30;0.30;;;8.00;99.90;;;;;;5037110;28;20021;-83
2022/02/17 01:57:26;;;;;;;1.10;0.20;;;8.00;99.90;;;;;;5037107;28;20027;-83
2022/02/17 01:59:52;;;;;;;0.20;0.20;;;8.00;99.90;;;;;;5037110;28;20385;-83
2022/02/17 02:02:18;;;;;;;0.35;0.20;;;7.90;99.90;;;;;;5036850;28;20056;-83
2022/02/17 02:04:44;;;;;;;0.20;0.20;;;8.00;99.90;;;;;;5036993;28;20029;-83
2022/02/17 02:07:11;;;;;;;0.30;0.20;;;8.00;99.90;;;;;;5037231;28;20055;-82
2022/02/17 02:09:38;;;;;;;0.20;0.20;;;8.00;99.90;;;;;;5036927;28;20021;-84
2022/02/17 02:12:05;;;;;;;0.65;0.20;;;8.00;99.90;;;;;;5036775;28;20033;-82
2022/02/17 02:14:30;;;;;;;0.55;0.20;;;8.00;99.90;;;;;;5036817;28;20485;-83
2022/02/17 02:16:56;;;;;;;0.80;0.20;;;8.00;99.90;;;;;;5036739;28;20043;-82
2022/02/17 02:19:23;;;;;;;0.35;0.20;;;8.00;99.90;;;;;;5036704;28;20116;-82
2022/02/17 02:21:49;;;;;;;0.30;0.20;;;8.00;99.90;;;;;;5036598;28;20025;-83
2022/02/17 02:24:15;;;;;;;0.40;0.30;;;8.00;99.90;;;;;;5036574;28;20035;-83
2022/02/17 02:26:40;;;;;;;0.28;0.28;;;8.00;99.90;;;;;;5036586;28;20021;-83
2022/02/17 02:29:06;;;;;;;0.20;0.20;;;8.00;99.90;;;;;;5036418;28;20040;-83
2022/02/17 02:31:32;;;;;;;0.32;0.28;;;8.00;99.90;;;;;;5036457;28;20029;-82
2022/02/17 02:33:58;;;;;;;1.08;0.20;;;8.00;99.90;;;;;;5054261;28;20353;-83
2022/02/17 02:36:25;;;;;;;0.20;0.20;;;8.00;99.90;;;;;;5035926;28;20035;-83
2022/02/17 02:38:51;;;;;;;0.20;0.20;;;8.00;99.90;;;;;;5036334;28;20061;-83
2022/02/17 02:41:17;;;;;;;0.43;0.30;;;8.00;99.90;;;;;;5036303;28;20059;-82
2022/02/17 02:43:43;;;;;;;0.20;0.20;;;8.00;99.90;;;;;;5036172;28;20029;-83
2022/02/17 02:46:09;;;;;;;0.30;0.30;;;8.00;99.90;;;;;;5054048;28;20021;-83
2022/02/17 02:48:35;;;;;;;1.10;0.30;;;8.00;99.90;;;;;;5036237;28;20547;-82
2022/02/17 02:51:01;;;;;;;0.30;0.22;;;8.00;99.90;;;;;;5036078;28;20167;-82
2022/02/17 02:53:27;;;;;;;0.20;0.20;;;8.00;99.90;;;;;;5036055;28;20059;-82
2022/02/17 02:55:53;;;;;;;0.30;0.20;;;8.00;99.90;;;;;;5036054;28;20021;-83
2022/02/17 02:58:19;;;;;;;0.32;0.20;;;8.00;99.90;;;;;;5035973;28;20028;-82
2022/02/17 03:00:46;;;;;;;0.30;0.20;;;8.00;99.90;;;;;;5035680;28;20103;-83
2022/02/17 03:03:13;;;;;;;0.20;0.20;;;8.00;99.90;;;;;;5053822;28;20029;-82
2022/02/17 03:05:39;;;;;;;0.70;0.32;;;8.00;99.90;;;;;;5035885;28;20397;-82
2022/02/17 03:08:06;;;;;;;0.20;0.20;;;8.00;99.90;;;;;;5036109;28;20035;-82
2022/02/17 03:10:32;;;;;;;0.38;0.30;;;8.00;99.90;;;;;;5053627;28;20040;-82
2022/02/17 03:12:59;;;;;;;0.60;0.20;;;8.00;99.90;;;;;;5035742;28;20029;-83
2022/02/17 03:15:26;;;;;;;0.30;0.13;;;8.00;99.90;;;;;;5035644;28;20514;-82
2022/02/17 03:17:52;;;;;;;0.80;0.30;;;8.00;99.90;;;;;;5035664;28;20435;-83
2022/02/17 03:20:18;;;;;;;3.22;0.30;;;8.00;99.90;;;;;;5053779;28;20078;-82
2022/02/17 03:22:44;;;;;;;0.28;0.28;;;8.00;99.90;;;;;;5035416;28;20043;-83
2022/02/17 03:25:12;;;;;;;2.35;0.52;;;8.00;99.90;;;;;;5053413;28;20025;-81
2022/02/17 03:27:38;;;;;;;0.20;0.20;;;8.00;99.90;;;;;;5035844;28;20051;-82
2022/02/17 03:30:07;;;;;;;0.10;0.10;;;8.10;99.90;;;;;;5035468;28;20032;-83
2022/02/17 03:32:34;;;;;;;0.30;0.30;;;8.10;99.90;;;;;;5035517;28;20036;-83
2022/02/17 03:35:00;;;;;;;0.85;0.22;;;8.00;99.90;;;;;;5035385;28;20032;-82
2022/02/17 03:37:26;;;;;;;0.10;0.10;;;8.00;99.90;;;;;;5035465;28;20498;-82
2022/02/17 03:39:51;;;;;;;0.20;0.10;;;8.00;99.90;;;;;;5035363;28;20086;-82
2022/02/17 03:42:17;;;;;;;0.28;0.20;;;8.00;99.90;;;;;;5035604;28;20120;-83
2022/02/17 03:44:43;;;;;;;0.10;0.10;;;8.00;99.90;;;;;;5035353;28;20024;-82
2022/02/17 03:47:09;;;;;;;0.10;0.10;;;8.10;99.90;;;;;;5035100;28;20021;-82
2022/02/17 03:49:35;;;;;;;0.08;0.08;;;8.10;99.90;;;;;;5035237;28;20488;-82
2022/02/17 03:52:00;;;;;;;1.38;0.20;;;8.10;99.90;;;;;;5035114;28;20052;-82
2022/02/17 03:54:26;;;;;;;0.32;0.20;;;8.10;99.90;;;;;;5035262;28;20027;-82
2022/02/17 03:56:52;;;;;;;0.10;0.10;;;8.00;99.90;;;;;;5035167;28;20488;-81
2022/02/17 03:59:17;;;;;;;0.20;0.20;;;8.10;99.90;;;;;;5035173;28;20017;-82
2022/02/17 04:01:43;;;;;;;0.28;0.20;;;8.10;99.90;;;;;;5052855;28;20131;-82
2022/02/17 04:04:10;;;;;;;0.65;0.20;;;8.10;99.90;;;;;;5035078;28;20083;-82
2022/02/17 04:06:37;;;;;;;0.20;0.20;;;8.10;99.90;;;;;;5035131;28;20025;-82
2022/02/17 04:09:05;;;;;;;0.25;0.20;;;8.10;99.90;;;;;;5052897;28;20032;-82
2022/02/17 04:11:31;;;;;;;0.25;0.20;;;8.10;99.90;;;;;;5053105;28;20025;-83
2022/02/17 04:13:57;;;;;;;0.45;0.25;;;8.10;99.90;;;;;;5035035;28;20021;-81
2022/02/17 04:16:23;;;;;;;0.20;0.20;;;8.10;99.90;;;;;;5052863;28;20021;-82
2022/02/17 04:18:49;;;;;;;0.85;0.30;;;8.10;99.90;;;;;;5034973;28;20075;-82
2022/02/17 04:21:17;;;;;;;0.28;0.25;;;8.10;99.90;;;;;;5034907;28;20488;-83
2022/02/17 04:23:44;;;;;;;0.52;0.25;;;8.10;99.90;;;;;;5034917;28;20033;-84
2022/02/17 04:26:16;;;;;;;0.28;0.20;;;8.10;99.90;;;;;;5034873;28;20025;-82
2022/02/17 04:28:43;;;;;;;0.20;0.20;;;8.10;99.90;;;;;;5034828;28;20074;-82
2022/02/17 04:31:10;;;;;;;0.28;0.20;;;8.10;99.90;;;;;;5034828;28;20029;-83
2022/02/17 04:33:36;;;;;;;0.10;0.10;;;8.10;99.90;;;;;;5034791;28;20476;-84
2022/02/17 04:36:03;;;;;;;0.10;0.10;;;8.10;99.90;;;;;;5034796;28;20096;-83
2022/02/17 04:38:29;;;;;;;0.40;0.20;;;8.10;99.90;;;;;;5034746;28;20025;-83
2022/02/17 04:43:42;;;;;;;0.10;0.10;;;8.10;99.90;;;;;;5053151;28;20410;-83
2022/02/17 04:46:08;;;;;;;0.20;0.20;;;8.10;99.90;;;;;;5034716;28;20116;-83
2022/02/17 04:48:34;;;;;;;0.17;0.17;;;8.10;99.90;;;;;;5034723;28;20106;-82
2022/02/17 04:51:00;;;;;;;0.20;0.20;;;8.10;99.90;;;;;;5034584;28;20392;-82
2022/02/17 04:53:26;;;;;;;0.40;0.20;;;8.10;99.90;;;;;;5052476;28;20017;-82
2022/02/17 04:55:52;;;;;;;0.15;0.15;;;8.10;99.90;;;;;;5052529;28;20031;-82
2022/02/17 04:58:18;;;;;;;1.10;0.20;;;8.10;99.90;;;;;;5019486;28;20530;-82
2022/02/17 05:00:48;;;;;;;0.10;0.10;;;8.10;99.90;;;;;;5038141;28;20044;-82
2022/02/17 05:03:14;;;;;;;0.30;0.20;;;8.10;99.90;;;;;;5038242;28;20543;-83
2022/02/17 05:05:40;;;;;;;0.10;0.10;;;8.10;99.90;;;;;;5021666;28;20145;-83
2022/02/17 05:08:06;;;;;;;0.30;0.30;;;8.20;99.90;;;;;;5038082;28;20395;-83
2022/02/17 05:10:32;;;;;;;1.40;0.50;;;8.20;99.90;;;;;;5037998;28;20112;-83
2022/02/17 05:12:58;;;;;;;0.10;0.10;;;8.10;99.90;;;;;;5038030;28;20028;-84
2022/02/17 05:15:24;;;;;;;0.10;0.10;;;8.10;99.90;;;;;;5055787;28;20090;-83
2022/02/17 05:17:50;;;;;;;0.40;0.20;;;8.20;99.90;;;;;;5037886;28;20021;-83
2022/02/17 05:20:16;;;;;;;0.45;0.30;;;8.20;99.90;;;;;;5055797;28;20029;-83
2022/02/17 05:22:43;;;;;;;0.65;0.30;;;8.10;99.90;;;;;;5037903;28;20025;-84
2022/02/17 05:25:10;;;;;;;0.30;0.30;;;8.10;99.90;;;;;;5021403;28;20029;-83
2022/02/17 05:27:36;;;;;;;0.20;0.20;;;8.10;99.90;;;;;;5021112;28;20029;-83
2022/02/17 05:30:03;;;;;;;0.20;0.20;;;8.10;99.90;;;;;;5055795;28;20484;-83
2022/02/17 05:32:29;;;;;;;1.02;0.22;;;8.10;99.90;;;;;;5055447;28;20219;-83
2022/02/17 05:34:54;;;;;;;1.30;0.30;;;8.20;99.90;;;;;;5037865;28;20057;-84
2022/02/17 05:37:20;;;;;;;0.90;0.20;;;8.10;99.90;;;;;;5037486;28;20016;-84
2022/02/17 05:39:46;;;;;;;0.22;0.17;;;8.10;99.90;;;;;;5055142;28;20426;-84
2022/02/17 05:42:11;;;;;;;0.10;0.10;;;8.20;99.90;;;;;;5037571;28;20029;-83
2022/02/17 05:44:37;;;;;;;0.75;0.40;;;8.20;99.90;;;;;;5037342;28;20052;-84
2022/02/17 05:47:03;;;;;;;0.10;0.10;;;8.10;99.90;;;;;;5037455;28;20021;-83
2022/02/17 05:49:30;;;;;;;0.20;0.20;;;8.10;99.90;;;;;;5037695;28;20021;-83
2022/02/17 05:51:56;;;;;;;0.55;0.22;;;8.20;99.90;;;;;;5037121;28;20097;-83
2022/02/17 05:54:21;;;;;;;0.20;0.20;;;8.20;99.90;;;;;;5037268;28;20048;-84
2022/02/17 05:56:48;;;;;;;0.65;0.20;;;8.20;99.90;;;;;;5037232;28;20032;-83
2022/02/17 05:59:14;;;;;;;2.53;0.30;;;8.20;99.90;;;;;;5037207;28;20033;-85
2022/02/17 06:01:40;;;;;;;0.20;0.20;;;8.20;99.90;;;;;;5036898;28;20049;-83
2022/02/17 06:04:05;;;;;;;0.50;0.30;;;8.20;99.90;;;;;;5037083;28;20025;-83
2022/02/17 06:06:36;;;;;;;0.28;0.20;;;8.20;99.90;;;;;;5036975;28;20032;-83
2022/02/17 06:09:03;;;;;;;1.55;0.22;;;8.20;99.90;;;;;;5036973;28;20074;-83
2022/02/17 06:11:29;;;;;;;1.00;0.28;;;8.20;99.90;;;;;;5036794;28;20032;-83
2022/02/17 06:13:57;;;;;;;0.20;0.20;;;8.20;99.90;;;;;;5054759;28;20017;-83
2022/02/17 06:16:23;;;;;;;0.90;0.20;;;8.10;99.90;;;;;;5036796;28;20473;-83
2022/02/17 06:18:49;;;;;;;1.77;0.40;;;8.20;99.90;;;;;;5036753;28;20018;-84
2022/02/17 06:21:15;;;;;;;1.20;0.40;;;8.20;99.90;;;;;;5036735;28;20161;-83
2022/02/17 06:23:40;;;;;;;0.40;0.40;;;8.20;99.90;;;;;;5036609;28;20036;-82
2022/02/17 06:26:06;;;;;;;0.30;0.20;;;8.20;99.90;;;;;;5036618;28;20061;-82
2022/02/17 06:28:32;;;;;;;1.70;0.47;;;8.20;99.90;;;;;;5036553;28;20056;-83
2022/02/17 06:30:58;;;;;;;2.42;0.40;;;8.20;99.90;;;;;;5036443;28;20033;-82
2022/02/17 06:33:23;;;;;;;1.35;0.30;;;8.20;99.90;;;;;;5036443;28;20024;-82
2022/02/17 06:35:49;;;;;;;0.95;0.50;;;8.20;99.90;;;;;;5054358;28;20370;-82
2022/02/17 06:38:15;;;;;;;1.17;0.40;;;8.10;99.90;;;;;;5036342;28;20489;-82
2022/02/17 06:40:40;;;;;;;1.13;0.40;;;8.10;99.90;;;;;;5036861;28;20029;-83
2022/02/17 06:43:09;;;;;;;3.65;0.50;;;8.20;99.90;;;;;;5054177;28;20109;-82
2022/02/17 06:45:36;;;;;;;2.50;0.60;;;8.20;99.90;;;;;;5036810;28;20056;-83
2022/02/17 06:48:02;;;;;;;1.52;0.60;;;8.20;99.90;;;;;;5036562;28;20033;-83
2022/02/17 06:50:28;;;;;;;3.90;1.30;;;8.10;99.90;;;;;;5036098;28;20074;-83
2022/02/17 06:52:54;;;;;;;3.05;0.60;;;8.20;99.90;;;;;;5036020;28;20021;-82
2022/02/17 06:55:20;;;;;;;4.43;0.80;;;8.10;99.90;;;;;;5036062;28;20024;-82
2022/02/17 06:57:45;;;;;;;2.85;0.80;;;8.20;99.90;;;;;;5036075;28;20373;-82
2022/02/17 07:00:12;;;;;;;3.30;1.00;;;8.20;99.90;;;;;;5036008;28;20017;-82
2022/02/17 07:02:37;;;;;;;2.75;0.70;;;8.20;99.90;;;;;;5035747;28;20400;-82
2022/02/17 07:05:04;;;;;;;2.70;0.70;;;8.20;99.90;;;;;;5035916;28;20025;-81
2022/02/17 07:07:35;;;;;;;3.15;0.73;;;8.20;99.90;;;;;;5053934;28;20036;-82
2022/02/17 07:10:02;;;;;;;1.27;0.45;;;8.20;99.90;;;;;;5035860;28;20028;-82
2022/02/17 07:12:28;;;;;;;3.72;0.75;;;8.20;99.90;;;;;;5035635;28;20120;-82
2022/02/17 07:14:57;;;;;;;2.28;0.70;;;8.20;99.90;;;;;;5035671;28;20630;-82
2022/02/17 07:17:24;;;;;;;3.45;0.70;;;8.20;99.90;;;;;;5053547;28;20443;-82
2022/02/17 07:19:50;;;;;;;3.75;0.98;;;8.30;99.90;;;;;;5035612;28;20112;-82
2022/02/17 07:22:16;;;;;;;3.70;0.77;;;8.30;99.90;;;;;;5035109;28;20029;-82
2022/02/17 07:24:42;;;;;;;2.15;0.70;;;8.40;99.90;;;;;;5035566;28;20039;-82
2022/02/17 07:27:09;;;;;;;2.53;0.70;;;8.60;99.90;;;;;;5036108;28;20116;-82
2022/02/17 07:29:36;;;;;;;2.83;0.70;;;8.80;99.90;;;;;;5035502;28;20417;-81
2022/02/17 07:32:06;;;;;;;3.72;0.88;;;8.90;99.90;;;;;;5053533;28;20021;-82
2022/02/17 07:34:31;;;;;;;3.95;0.82;;;9.30;99.90;;;;;;5035646;28;20051;-82
2022/02/17 07:36:57;;;;;;;3.55;0.98;;;9.70;99.90;;;;;;5035422;28;20473;-82
2022/02/17 07:39:23;;;;;;;4.32;0.98;;;9.90;99.90;;;;;;5035394;28;20394;-82
2022/02/17 07:41:48;;;;;;;3.25;0.80;;;9.80;99.90;;;;;;5035363;28;20120;-82
2022/02/17 07:44:14;;;;;;;2.50;0.90;;;9.60;99.90;;;;;;5053193;28;20029;-81
2022/02/17 07:46:40;;;;;;;5.53;1.05;;;9.70;99.90;;;;;;5035232;28;20040;-81
2022/02/17 07:49:05;;;;;;;7.65;1.30;;;9.70;99.90;;;;;;5053328;28;20104;-81
2022/02/17 07:51:33;;;;;;;3.95;1.10;;;10.10;99.90;;;;;;5035048;28;20484;-82
2022/02/17 07:54:00;;;;;;;4.68;1.45;;;10.60;99.90;;;;;;5035156;28;20112;-85
2022/02/17 07:56:26;;;;;;;6.82;1.67;;;11.40;99.90;;;;;;5035128;28;20061;-82
2022/02/17 07:58:52;;;;;;;4.45;1.13;;;11.90;99.90;;;;;;5035122;28;20120;-82
2022/02/17 08:01:18;;;;;;;5.40;1.20;;;12.10;99.90;;;;;;5031591;28;20137;-81
2022/02/17 08:03:45;;;;;;;5.25;1.45;;;12.30;99.90;;;;;;5031763;28;20021;-82
2022/02/17 08:06:12;;;;;;;5.57;1.40;;;12.80;99.90;;;;;;5031737;28;20378;-81
2022/02/17 08:08:37;;;;;;;4.60;1.23;;;13.00;99.90;;;;;;5031740;28;20473;-81
2022/02/17 08:11:05;;;;;;;6.40;1.67;;;13.20;99.90;;;;;;5031674;28;20028;-81
2022/02/17 08:13:31;;;;;;;6.32;1.38;;;13.30;99.90;;;;;;5031708;28;20025;-81
2022/02/17 08:15:57;;;;;;;8.32;1.85;;;13.20;99.90;;;;;;5031675;28;20076;-81
2022/02/17 08:18:23;;;;;;;7.85;1.45;;;13.00;99.90;;;;;;5031644;28;20414;-82
2022/02/17 08:20:49;;;;;;;5.63;1.27;;;12.70;99.90;;;;;;5032868;28;20101;-82
2022/02/17 08:23:15;;;;;;;6.43;1.65;;;11.90;99.90;;;;;;5032913;28;20079;-81
2022/02/17 08:25:41;;;;;;;9.32;1.65;;;11.10;99.90;;;;;;5031610;28;20492;-82
2022/02/17 08:28:07;;;;;;;9.52;1.70;;;10.90;99.90;;;;;;5032841;28;20026;-82
2022/02/17 08:30:36;;;;;;;8.10;1.63;;;11.10;99.90;;;;;;5031607;28;20512;-82
2022/02/17 08:33:03;;;;;;;6.13;1.60;;;11.30;99.90;;;;;;5032468;28;20041;-82
2022/02/17 08:35:29;;;;;;;10.60;2.33;;;11.50;99.90;;;;;;5035321;28;20056;-82
2022/02/17 08:37:56;;;;;;;12.35;2.15;;;11.60;99.90;;;;;;5035340;28;20056;-81
2022/02/17 08:40:23;;;;;;;7.22;1.98;;;11.80;99.90;;;;;;5035269;28;20017;-81
2022/02/17 08:42:49;;;;;;;9.73;1.80;;;11.80;99.90;;;;;;5035242;28;20033;-81
2022/02/17 08:45:15;;;;;;;8.35;2.15;;;12.00;99.90;;;;;;5036784;28;20030;-84
2022/02/17 08:47:42;;;;;;;7.43;1.90;;;12.00;99.90;;;;;;5035187;28;20083;-81
2022/02/17 08:50:09;;;;;;;11.98;2.63;;;12.00;99.90;;;;;;5035247;28;20017;-83
2022/02/17 08:52:36;;;;;;;8.15;2.03;;;12.00;99.90;;;;;;5018880;28;20044;-81
2022/02/17 08:55:03;;;;;;;9.95;2.20;;;11.70;99.90;;;;;;5036502;28;20022;-82
2022/02/17 08:57:28;;;;;;;10.52;2.50;;;11.70;99.90;;;;;;5035217;28;20424;-82
2022/02/17 08:59:54;;;;;;;10.05;1.90;;;11.40;99.90;;;;;;5035082;28;20029;-81
2022/02/17 09:02:20;;;;;;;15.00;2.30;;;11.40;99.90;;;;;;5034774;28;20046;-82
2022/02/17 09:04:45;;;;;;;7.97;1.65;;;11.40;99.90;;;;;;5035119;28;20499;-84
2022/02/17 09:07:11;;;;;;;12.23;2.17;;;11.30;99.90;;;;;;5036176;28;20080;-81
2022/02/17 09:09:37;;;;;;;13.27;2.35;;;11.30;99.90;;;;;;5034871;28;20481;-81
2022/02/17 09:12:03;;;;;;;10.35;2.13;;;11.40;99.90;;;;;;5018239;28;20032;-83
2022/02/17 09:14:28;;;;;;;11.93;2.42;;;11.40;99.90;;;;;;5034695;28;20037;-81
2022/02/17 09:16:57;;;;;;;12.77;2.33;;;11.20;99.90;;;;;;5034656;28;20053;-83
2022/02/17 09:19:23;;;;;;;10.05;2.50;;;11.10;99.90;;;;;;5034585;28;20026;-82
2022/02/17 09:21:49;;;;;;;13.38;2.10;;;11.10;99.90;;;;;;5034580;28;20025;-81
2022/02/17 09:24:15;;;;;;;9.93;2.58;;;10.80;99.90;;;;;;5034689;28;20116;-82
2022/02/17 09:26:40;;;;;;;11.88;2.08;;;10.60;99.90;;;;;;5034656;28;20026;-84
2022/02/17 09:29:08;;;;;;;9.15;2.03;;;10.70;99.90;;;;;;5034738;28;20477;-82
2022/02/17 09:31:34;;;;;;;17.90;2.55;;;10.90;99.90;;;;;;5036220;28;20033;-85
2022/02/17 09:34:01;;;;;;;17.48;2.78;;;11.10;99.90;;;;;;5035573;28;20057;-82
2022/02/17 09:36:27;;;;;;;12.05;2.40;;;11.00;99.90;;;;;;5035759;28;20028;-82
2022/02/17 09:38:55;;;;;;;13.50;2.78;;;10.80;99.90;;;;;;5034691;28;20437;-82
2022/02/17 09:41:21;;;;;;;13.90;3.00;;;10.60;99.90;;;;;;5034458;28;20021;-82
2022/02/17 09:43:49;;;;;;;16.25;2.47;;;10.30;99.90;;;;;;5033944;28;20029;-82
2022/02/17 09:46:21;;;;;;;10.25;2.92;;;10.10;99.90;;;;;;5034401;28;20408;-82
2022/02/17 09:48:56;;;;;;;18.80;2.75;;;9.90;99.90;;;;;;5034150;28;20025;-83
2022/02/17 09:51:25;;;;;;;12.23;2.58;;;9.80;99.90;;;;;;5033927;28;20029;-85
2022/02/17 09:53:53;;;;;;;12.55;2.40;;;9.70;99.90;;;;;;5034046;28;20022;-82
2022/02/17 09:56:22;;;;;;;17.92;3.00;;;9.90;99.90;;;;;;5035453;28;20533;-82
2022/02/17 09:58:55;;;;;;;15.02;2.80;;;10.20;99.90;;;;;;5034205;28;20440;-82
2022/02/17 10:01:27;;;;;;;13.00;2.95;;;10.40;99.90;;;;;;5033823;28;20057;-82
2022/02/17 10:04:18;;;;;;;11.82;2.67;;;10.60;99.90;;;;;;5033852;28;20035;-81
2022/02/17 10:06:47;;;;;;;13.60;2.38;;;10.60;99.90;;;;;;5033695;28;20120;-81
2022/02/17 10:09:14;;;;;;;12.82;2.63;;;10.60;99.90;;;;;;5017128;28;20036;-81
2022/02/17 10:11:41;;;;;;;13.13;2.90;;;10.40;99.90;;;;;;5033576;28;20079;-81
2022/02/17 10:14:16;;;;;;;11.18;3.00;;;10.20;99.90;;;;;;5033530;28;20151;-82
2022/02/17 10:17:01;;;;;;;;;;;10.10;99.90;;;;;;5033900;28;20025;-81
2022/02/17 10:19:33;;;;;;;12.15;2.60;;;10.10;99.90;;;;;;5034763;28;19944;-83
2022/02/17 10:22:04;;;;;;;15.07;2.90;;;10.10;99.90;;;;;;5033413;28;20087;-81
2022/02/17 10:24:45;;;;;;;17.75;3.25;;;10.10;99.90;;;;;;5033386;28;20026;-83
2022/02/17 10:27:14;;;;;;;11.68;3.15;;;10.10;99.90;;;;;;5034569;28;20029;-82
2022/02/17 10:30:02;;;;;;;12.77;2.58;;;10.00;99.90;;;;;;5033191;28;20021;-82
2022/02/17 10:32:28;;;;;;;17.10;3.30;;;10.10;99.90;;;;;;5033240;28;20034;-82
2022/02/17 10:35:12;;;;;;;20.35;4.28;;;10.20;99.90;;;;;;5034414;28;20022;-82
2022/02/17 10:37:48;;;;;;;14.55;2.88;;;10.10;99.90;;;;;;5033536;28;20107;-84
2022/02/17 10:40:16;;;;;;;15.00;2.70;;;10.10;99.90;;;;;;5033075;28;20473;-83
2022/02/17 10:42:41;;;;;;;16.13;3.28;;;10.10;99.90;;;;;;5034341;28;20017;-83
2022/02/17 10:45:28;;;;;;;18.25;3.65;;;10.10;99.90;;;;;;5034261;28;20093;-82
2022/02/17 10:48:09;;;;;;;21.23;3.90;;;10.10;99.90;;;;;;5034095;28;20030;-82
2022/02/17 10:50:35;;;;;;;14.93;2.80;;;10.10;99.90;;;;;;5032884;28;20128;-85
2022/02/17 10:53:14;;;;;;;14.73;3.20;;;10.00;99.90;;;;;;5032657;28;20049;-85
2022/02/17 10:56:00;;;;;;;17.05;2.75;;;10.00;99.90;;;;;;5032118;28;20493;-81
2022/02/17 10:58:29;;;;;;;13.57;2.95;;;10.00;99.90;;;;;;5032658;28;20025;-82
2022/02/17 11:01:06;;;;;;;18.60;3.25;;;9.90;99.90;;;;;;5033094;28;20130;-82
2022/02/17 11:03:33;;;;;;;13.90;3.05;;;9.90;99.90;;;;;;5033969;28;20112;-82
2022/02/17 11:06:00;;;;;;;21.25;3.50;;;9.90;99.90;;;;;;5032569;28;20033;-82
2022/02/17 11:08:26;;;;;;;17.98;3.08;;;10.00;99.90;;;;;;5033764;28;20030;-81
2022/02/17 11:10:52;;;;;;;11.50;2.63;;;10.00;99.90;;;;;;5032374;28;20029;-82
2022/02/17 11:13:25;;;;;;;15.90;3.50;;;10.00;99.90;;;;;;5032391;28;20025;-81
2022/02/17 11:15:54;;;;;;;15.68;3.70;;;10.00;99.90;;;;;;5032483;28;20076;-82
2022/02/17 11:18:21;;;;;;;20.95;3.28;;;10.10;99.90;;;;;;5032354;28;20489;-81
2022/02/17 11:20:50;;;;;;;18.45;3.30;;;10.10;99.90;;;;;;5033592;28;20021;-81
2022/02/17 11:23:21;;;;;;;16.13;3.10;;;10.10;99.90;;;;;;5032279;28;20112;-83
2022/02/17 11:25:48;;;;;;;19.85;3.90;;;10.20;99.90;;;;;;5032246;28;20087;-82
2022/02/17 11:28:21;;;;;;;18.92;3.38;;;10.20;99.90;;;;;;5032386;28;20029;-83
2022/02/17 11:31:00;;;;;;;17.38;3.08;;;10.20;99.90;;;;;;5032898;28;20034;-82
2022/02/17 11:33:32;;;;;;;15.93;2.92;;;10.20;99.90;;;;;;5032060;28;20026;-82
2022/02/17 11:36:07;;;;;;;14.02;3.33;;;10.20;99.90;;;;;;5033676;28;20025;-83
2022/02/17 11:38:40;;;;;;;15.27;3.10;;;10.30;99.90;;;;;;5032116;28;20436;-82
2022/02/17 11:41:19;;;;;;;22.30;3.33;;;10.40;99.90;;;;;;5032004;28;20025;-81
2022/02/17 11:43:47;;;;;;;14.40;3.38;;;10.50;99.90;;;;;;5033260;28;20063;-82
2022/02/17 11:46:14;;;;;;;17.60;3.45;;;10.60;99.90;;;;;;5031953;28;20025;-82
2022/02/17 11:48:51;;;;;;;19.40;3.30;;;10.70;99.90;;;;;;5033220;28;20076;-83
2022/02/17 11:51:23;;;;;;;18.92;3.42;;;10.80;99.90;;;;;;5031969;28;20025;-81
2022/02/17 11:54:15;;;;;;;19.98;3.80;;;10.90;99.90;;;;;;5031790;28;20572;-82
2022/02/17 11:56:47;;;;;;;20.50;4.20;;;11.00;99.90;;;;;;5031831;28;20029;-82
2022/02/17 11:59:20;;;;;;;15.98;3.35;;;11.00;99.90;;;;;;5033343;28;20029;-82
2022/02/17 12:01:47;;;;;;;20.80;3.50;;;10.90;99.90;;;;;;5031547;28;20129;-81
2022/02/17 12:04:40;;;;;;;18.65;3.55;;;10.90;99.90;;;;;;5031805;28;20497;-82
2022/02/17 12:07:27;;;;;;;28.05;3.90;;;10.90;99.90;;;;;;5033701;28;20037;-82
2022/02/17 12:09:54;;;;;;;14.32;3.30;;;10.80;99.90;;;;;;5035784;28;20029;-83
2022/02/17 12:12:27;;;;;;;16.98;3.67;;;10.80;99.90;;;;;;5035711;28;20033;-81
2022/02/17 12:14:58;;;;;;;23.15;4.07;;;10.80;99.90;;;;;;5037075;28;20100;-82
2022/02/17 12:17:31;;;;;;;19.35;5.03;;;10.80;99.90;;;;;;5035692;28;20504;-82
2022/02/17 12:20:06;;;;;;;18.83;4.20;;;10.80;99.90;;;;;;5019697;28;20028;-82
2022/02/17 12:22:32;;;;;;;21.52;4.72;;;10.80;99.90;;;;;;5035643;28;20030;-82
2022/02/17 12:25:16;;;;;;;22.80;4.53;;;10.80;99.90;;;;;;5035872;28;20029;-82
2022/02/17 12:27:49;;;;;;;18.40;4.35;;;10.70;99.90;;;;;;5035756;28;20033;-83
2022/02/17 12:30:24;;;;;;;26.40;4.28;;;10.70;99.90;;;;;;5035722;28;20120;-83
2022/02/17 12:33:41;;;;;;;25.17;4.07;;;10.80;99.90;;;;;;5036778;28;20032;-81
2022/02/17 12:36:13;;;;;;;21.50;4.03;;;10.80;99.90;;;;;;4940534;29;20020;-82
2022/02/17 12:38:39;;;;;;;24.00;3.95;;;10.80;99.90;;;;;;4956457;29;20459;-82
2022/02/17 12:41:11;;;;;;;22.98;4.50;;;10.80;99.90;;;;;;4987024;28;20120;-81
2022/02/17 12:43:40;;;;;;;23.13;4.53;;;10.80;99.90;;;;;;5036536;28;20045;-82
2022/02/17 12:46:12;;;;;;;21.13;4.60;;;10.90;99.90;;;;;;5036454;28;20033;-82
2022/02/17 12:48:39;;;;;;;19.05;3.72;;;10.90;99.90;;;;;;5035080;28;20044;-82
2022/02/17 12:51:05;;;;;;;18.15;3.67;;;11.00;99.90;;;;;;5035098;28;20041;-82
2022/02/17 12:53:52;;;;;;;18.45;3.88;;;11.00;99.90;;;;;;5035216;28;20474;-85
2022/02/17 12:56:29;;;;;;;18.95;4.20;;;11.10;99.90;;;;;;5035346;28;20030;-83